Time;durP1;ratioP1;P1;durP2;ratioP2;P2;SDS_P1;SDS_P2;PMS_P1;PMS_P2;Temp;Humidity;BMP_temperature;BMP_pressure;BME280_temperature;BME280_humidity;BME280_pressure;Samples;Min_cycle;Max_cycle;Signal;HPM_P1;HPM_P2
2023/01/22 00:01:04;;;;;;;6.10;4.30;;;3.20;99.90;;;;;;5061405;28;20792;-69
2023/01/22 00:03:31;;;;;;;7.80;4.20;;;3.20;99.90;;;;;;5061239;28;20462;-70
2023/01/22 00:05:58;;;;;;;10.90;4.70;;;3.20;99.90;;;;;;5061464;28;20787;-69
2023/01/22 00:08:25;;;;;;;8.33;4.10;;;3.20;99.90;;;;;;5061927;28;20481;-69
2023/01/22 00:10:52;;;;;;;6.20;3.87;;;3.20;99.90;;;;;;5061381;28;20836;-69
2023/01/22 00:13:20;;;;;;;7.37;4.33;;;3.20;99.90;;;;;;5060899;28;20524;-70
2023/01/22 00:15:48;;;;;;;5.80;4.27;;;3.10;99.90;;;;;;5060975;28;20459;-70
2023/01/22 00:18:15;;;;;;;5.47;3.63;;;3.10;99.90;;;;;;5060975;28;20565;-69
2023/01/22 00:20:46;;;;;;;5.57;4.40;;;3.20;99.90;;;;;;5060834;28;20450;-69
2023/01/22 00:23:13;;;;;;;8.10;4.30;;;3.10;99.90;;;;;;5060660;28;20951;-70
2023/01/22 00:25:40;;;;;;;10.33;4.23;;;3.10;99.90;;;;;;5060628;28;20461;-69
2023/01/22 00:28:08;;;;;;;5.50;4.23;;;3.10;99.90;;;;;;5060684;28;20570;-69
2023/01/22 00:30:35;;;;;;;5.20;4.47;;;3.20;99.90;;;;;;5061465;28;20859;-69
2023/01/22 00:33:03;;;;;;;7.77;4.50;;;3.20;99.90;;;;;;5060919;28;20942;-69
2023/01/22 00:35:31;;;;;;;5.97;4.47;;;3.20;99.90;;;;;;5061241;28;20465;-69
2023/01/22 00:37:58;;;;;;;8.93;4.77;;;3.10;99.90;;;;;;5061149;28;20480;-69
2023/01/22 00:40:25;;;;;;;7.87;4.27;;;3.10;99.90;;;;;;5060823;28;20458;-69
2023/01/22 00:42:52;;;;;;;6.83;4.40;;;3.10;99.90;;;;;;5060855;28;20493;-70
2023/01/22 00:45:18;;;;;;;5.80;4.20;;;3.10;99.90;;;;;;5061234;28;20481;-69
2023/01/22 00:47:45;;;;;;;7.33;4.37;;;3.10;99.90;;;;;;5061127;28;20488;-70
2023/01/22 00:50:13;;;;;;;6.90;4.17;;;3.20;99.90;;;;;;5060851;28;20937;-69
2023/01/22 00:52:40;;;;;;;6.17;4.10;;;3.20;99.90;;;;;;5060668;28;20454;-69
2023/01/22 00:55:08;;;;;;;8.43;4.83;;;3.20;99.90;;;;;;5061037;28;20555;-69
2023/01/22 00:57:35;;;;;;;11.73;5.43;;;3.10;99.90;;;;;;5060459;28;20549;-69
2023/01/22 01:00:01;;;;;;;10.50;4.73;;;3.10;99.90;;;;;;5061023;28;20495;-69
2023/01/22 01:02:28;;;;;;;5.60;4.13;;;3.10;99.90;;;;;;5057213;28;20455;-69
2023/01/22 01:04:56;;;;;;;6.60;4.80;;;3.10;99.90;;;;;;5057089;28;20937;-69
2023/01/22 01:07:24;;;;;;;4.90;4.00;;;3.10;99.90;;;;;;5057244;28;20475;-69
2023/01/22 01:09:51;;;;;;;5.83;4.10;;;3.10;99.90;;;;;;5057349;28;20465;-69
2023/01/22 01:12:18;;;;;;;6.40;4.87;;;3.10;99.90;;;;;;5057454;28;20469;-69
2023/01/22 01:14:44;;;;;;;5.97;4.60;;;3.00;99.90;;;;;;5057634;28;20451;-68
2023/01/22 01:17:11;;;;;;;6.13;4.40;;;3.00;99.90;;;;;;5057260;28;20467;-70
2023/01/22 01:19:38;;;;;;;4.97;4.40;;;3.00;99.90;;;;;;5057187;28;20858;-68
2023/01/22 01:22:07;;;;;;;5.30;4.63;;;3.00;99.90;;;;;;5056765;28;20995;-68
2023/01/22 01:24:35;;;;;;;8.50;4.30;;;3.00;99.90;;;;;;5057059;28;20483;-69
2023/01/22 01:27:02;;;;;;;8.80;4.50;;;3.00;99.90;;;;;;5057144;28;20462;-69
2023/01/22 01:29:29;;;;;;;4.80;4.20;;;3.10;99.90;;;;;;5056580;28;20546;-69
2023/01/22 01:31:56;;;;;;;7.73;5.00;;;3.10;99.90;;;;;;5057206;28;20525;-69
2023/01/22 01:34:23;;;;;;;6.43;4.90;;;3.10;99.90;;;;;;5056803;28;20459;-69
2023/01/22 01:36:50;;;;;;;6.20;4.70;;;3.00;99.90;;;;;;5056573;28;20465;-69
2023/01/22 01:39:17;;;;;;;5.50;4.90;;;3.10;99.90;;;;;;5056885;28;20541;-69
2023/01/22 01:41:45;;;;;;;10.43;4.50;;;3.00;99.90;;;;;;5057120;28;20466;-69
2023/01/22 01:44:15;;;;;;;4.90;3.90;;;3.00;99.90;;;;;;5056876;28;20961;-69
2023/01/22 01:46:46;;;;;;;6.00;4.17;;;3.00;99.90;;;;;;5056779;28;20461;-68
2023/01/22 01:49:21;;;;;;;4.83;4.10;;;3.00;99.90;;;;;;5056894;28;20520;-69
2023/01/22 01:51:49;;;;;;;5.07;3.80;;;3.00;99.90;;;;;;5056881;28;20464;-68
2023/01/22 01:54:17;;;;;;;4.40;3.57;;;3.00;99.90;;;;;;5057319;28;20550;-69
2023/01/22 01:56:50;;;;;;;4.13;3.73;;;3.00;99.90;;;;;;5056779;28;20465;-69
2023/01/22 01:59:19;;;;;;;9.53;4.53;;;3.00;99.90;;;;;;5056880;28;20908;-70
2023/01/22 02:01:51;;;;;;;4.80;4.13;;;3.00;99.90;;;;;;5056558;28;20533;-69
2023/01/22 02:04:18;;;;;;;5.60;4.70;;;3.00;99.90;;;;;;5056810;28;20443;-68
2023/01/22 02:06:45;;;;;;;4.83;3.90;;;3.00;99.90;;;;;;5056963;28;20481;-69
2023/01/22 02:09:13;;;;;;;4.00;3.60;;;3.10;99.90;;;;;;5056159;28;20562;-69
2023/01/22 02:11:40;;;;;;;5.13;4.63;;;3.10;99.90;;;;;;5056318;28;20538;-69
2023/01/22 02:14:12;;;;;;;6.07;4.87;;;3.10;99.90;;;;;;5054820;28;20469;-68
2023/01/22 02:16:39;;;;;;;9.37;7.50;;;3.10;99.90;;;;;;5056789;28;20781;-67
2023/01/22 02:19:06;;;;;;;7.10;5.83;;;3.00;99.90;;;;;;5056305;28;20462;-70
2023/01/22 02:21:37;;;;;;;4.20;3.80;;;3.00;99.90;;;;;;5056259;28;20881;-69
2023/01/22 02:24:06;;;;;;;4.43;4.03;;;3.10;99.90;;;;;;5056171;28;20475;-68
2023/01/22 02:26:33;;;;;;;4.03;3.73;;;3.10;99.90;;;;;;5056233;28;20546;-69
2023/01/22 02:29:00;;;;;;;4.20;3.80;;;3.10;99.90;;;;;;5055905;28;20574;-69
2023/01/22 02:31:27;;;;;;;4.30;3.87;;;3.00;99.90;;;;;;5055995;28;20465;-69
2023/01/22 02:33:54;;;;;;;4.93;4.10;;;3.00;99.90;;;;;;5056384;28;20455;-69
2023/01/22 02:36:21;;;;;;;4.30;3.53;;;3.00;99.90;;;;;;5055823;28;20794;-69
2023/01/22 02:38:49;;;;;;;4.17;3.77;;;3.00;99.90;;;;;;5056748;28;20749;-69
2023/01/22 02:41:16;;;;;;;6.00;4.00;;;3.10;99.90;;;;;;5055562;28;20455;-69
2023/01/22 02:43:43;;;;;;;5.60;4.40;;;3.00;99.90;;;;;;5055596;28;20475;-68
2023/01/22 02:46:10;;;;;;;5.57;4.30;;;3.00;99.90;;;;;;5055843;28;20533;-69
2023/01/22 02:48:37;;;;;;;4.10;3.70;;;3.00;99.90;;;;;;5056503;28;20511;-69
2023/01/22 02:51:05;;;;;;;4.70;4.30;;;3.00;99.90;;;;;;5056278;28;20465;-69
2023/01/22 02:53:32;;;;;;;6.10;4.13;;;3.00;99.90;;;;;;5056350;28;20455;-70
2023/01/22 02:56:00;;;;;;;4.33;3.93;;;3.00;99.90;;;;;;5056007;28;20455;-69
2023/01/22 02:58:27;;;;;;;3.97;3.57;;;3.00;99.90;;;;;;5056030;28;20855;-69
2023/01/22 03:00:54;;;;;;;3.87;3.57;;;3.00;99.90;;;;;;5055974;28;20465;-69
2023/01/22 03:03:20;;;;;;;4.10;3.73;;;3.00;99.90;;;;;;5055797;28;20915;-69
2023/01/22 03:05:48;;;;;;;5.27;4.17;;;3.00;99.90;;;;;;5055671;28;20543;-70
2023/01/22 03:08:16;;;;;;;4.47;4.03;;;3.00;99.90;;;;;;5055799;28;20489;-69
2023/01/22 03:10:43;;;;;;;4.60;4.10;;;3.00;99.90;;;;;;5056282;28;20785;-68
2023/01/22 03:21:24;;;;;;;4.93;4.10;;;3.00;99.90;;;;;;5055379;28;20431;-69
2023/01/22 03:23:53;;;;;;;3.90;3.60;;;2.90;99.90;;;;;;5055374;28;20452;-70
2023/01/22 03:26:21;;;;;;;4.10;3.70;;;2.90;99.90;;;;;;5055423;28;20850;-68
2023/01/22 03:28:50;;;;;;;4.93;3.97;;;2.90;99.90;;;;;;5055165;28;20483;-69
2023/01/22 03:31:17;;;;;;;5.23;3.80;;;2.90;99.90;;;;;;5055238;28;20797;-69
2023/01/22 03:33:44;;;;;;;6.00;4.30;;;2.90;99.90;;;;;;5054810;28;20455;-69
2023/01/22 03:36:14;;;;;;;5.83;4.40;;;3.00;99.90;;;;;;5054788;28;20455;-69
2023/01/22 03:38:41;;;;;;;4.60;3.63;;;3.00;99.90;;;;;;5055231;28;20542;-69
2023/01/22 03:41:12;;;;;;;5.60;3.93;;;3.00;99.90;;;;;;5054918;28;20534;-69
2023/01/22 03:43:39;;;;;;;3.40;3.10;;;3.00;99.90;;;;;;5055254;28;20501;-69
2023/01/22 03:46:10;;;;;;;3.40;3.10;;;3.00;99.90;;;;;;5055343;28;20546;-69
2023/01/22 03:48:38;;;;;;;3.77;3.40;;;3.00;99.90;;;;;;5055006;28;20493;-69
2023/01/22 03:51:10;;;;;;;3.50;3.20;;;3.00;99.90;;;;;;5055675;28;20788;-69
2023/01/22 03:53:37;;;;;;;4.00;3.70;;;3.00;99.90;;;;;;5055084;28;20893;-68
2023/01/22 03:56:06;;;;;;;4.30;3.90;;;3.00;99.90;;;;;;5055481;28;20527;-69
2023/01/22 03:58:34;;;;;;;4.03;3.53;;;3.00;99.90;;;;;;5055393;28;20458;-70
2023/01/22 04:01:02;;;;;;;3.77;3.20;;;3.00;99.90;;;;;;5055473;28;20556;-69
2023/01/22 04:03:31;;;;;;;4.20;3.80;;;3.00;99.90;;;;;;5055155;28;20559;-69
2023/01/22 04:05:59;;;;;;;4.57;4.10;;;3.10;99.90;;;;;;5054989;28;20497;-70
2023/01/22 04:08:28;;;;;;;5.07;3.83;;;3.10;99.90;;;;;;5056140;28;20499;-69
2023/01/22 04:10:55;;;;;;;3.87;3.40;;;3.10;99.90;;;;;;5055213;28;20791;-69
2023/01/22 04:13:22;;;;;;;3.57;3.27;;;3.10;99.90;;;;;;5055077;28;20465;-68
2023/01/22 04:15:49;;;;;;;4.13;3.70;;;3.10;99.90;;;;;;5054689;28;20549;-69
2023/01/22 04:18:16;;;;;;;3.90;3.60;;;3.10;99.90;;;;;;5054876;28;20451;-69
2023/01/22 04:20:44;;;;;;;4.07;3.67;;;3.10;99.90;;;;;;5054915;28;20947;-70
2023/01/22 04:23:11;;;;;;;4.23;3.83;;;3.10;99.90;;;;;;5055088;28;20483;-68
2023/01/22 04:25:38;;;;;;;4.53;4.13;;;3.10;99.90;;;;;;5055107;28;20498;-70
2023/01/22 04:28:07;;;;;;;5.07;4.07;;;3.10;99.90;;;;;;5054797;28;20551;-69
2023/01/22 04:30:34;;;;;;;5.57;4.07;;;3.10;99.90;;;;;;5055087;28;20867;-70
2023/01/22 04:33:01;;;;;;;4.23;3.80;;;3.10;99.90;;;;;;5054757;28;20465;-69
2023/01/22 04:35:27;;;;;;;4.73;4.33;;;3.10;99.90;;;;;;5055025;28;20455;-69
2023/01/22 04:37:56;;;;;;;4.40;4.00;;;3.20;99.90;;;;;;5057930;28;20494;-69
2023/01/22 04:40:23;;;;;;;4.43;4.03;;;3.20;99.90;;;;;;5059276;28;20455;-68
2023/01/22 04:42:50;;;;;;;5.10;4.47;;;3.20;99.90;;;;;;5058300;28;20493;-68
2023/01/22 04:45:17;;;;;;;5.00;4.60;;;3.20;99.90;;;;;;5058112;28;20463;-68
2023/01/22 04:47:47;;;;;;;4.23;3.83;;;3.10;99.90;;;;;;5058244;28;20853;-68
2023/01/22 04:50:17;;;;;;;5.23;4.07;;;3.10;99.90;;;;;;5058258;28;20493;-68
2023/01/22 04:52:43;;;;;;;4.57;4.10;;;3.10;99.90;;;;;;5058045;28;20553;-68
2023/01/22 04:55:12;;;;;;;5.33;4.83;;;3.10;99.90;;;;;;5058310;28;20561;-68
2023/01/22 04:57:39;;;;;;;5.20;4.47;;;3.10;99.90;;;;;;5058029;28;20546;-69
2023/01/22 05:00:08;;;;;;;5.33;4.77;;;3.10;99.90;;;;;;5057875;28;20550;-69
2023/01/22 05:02:35;;;;;;;5.00;4.50;;;3.10;99.90;;;;;;5057992;28;20547;-70
2023/01/22 05:05:01;;;;;;;5.37;4.87;;;3.10;99.90;;;;;;5058457;28;20455;-68
2023/01/22 05:07:28;;;;;;;5.73;4.40;;;3.10;99.90;;;;;;5058591;28;20487;-68
2023/01/22 05:09:55;;;;;;;6.20;5.00;;;3.20;99.90;;;;;;5058300;28;20479;-69
2023/01/22 05:12:23;;;;;;;4.83;4.33;;;3.20;99.90;;;;;;5058501;28;20459;-69
2023/01/22 05:14:50;;;;;;;5.07;4.50;;;3.20;99.90;;;;;;5057899;28;20459;-69
2023/01/22 05:17:17;;;;;;;5.30;4.10;;;3.20;99.90;;;;;;5058054;28;20469;-68
2023/01/22 05:19:44;;;;;;;6.77;4.77;;;3.20;99.90;;;;;;5058086;28;20615;-69
2023/01/22 05:22:11;;;;;;;6.03;4.70;;;3.20;99.90;;;;;;5057890;28;20538;-69
2023/01/22 05:24:38;;;;;;;5.50;4.57;;;3.20;99.90;;;;;;5057419;28;20515;-69
2023/01/22 05:27:05;;;;;;;5.20;4.33;;;3.20;99.90;;;;;;5057956;28;20481;-69
2023/01/22 05:29:33;;;;;;;5.20;4.70;;;3.10;99.90;;;;;;5056990;28;20475;-68
2023/01/22 05:32:00;;;;;;;5.50;5.00;;;3.20;99.90;;;;;;5057756;28;20470;-69
2023/01/22 05:34:27;;;;;;;5.10;4.60;;;3.20;99.90;;;;;;5057538;28;20538;-68
2023/01/22 05:36:53;;;;;;;5.53;5.00;;;3.10;99.90;;;;;;5058045;28;20548;-69
2023/01/22 05:39:20;;;;;;;7.23;5.70;;;3.10;99.90;;;;;;5057619;28;20546;-69
2023/01/22 05:41:47;;;;;;;5.93;5.07;;;3.10;99.90;;;;;;5057619;28;20516;-69
2023/01/22 05:44:14;;;;;;;5.33;4.83;;;3.10;99.90;;;;;;5057123;28;20518;-69
2023/01/22 05:46:43;;;;;;;7.60;5.00;;;3.10;99.90;;;;;;5057252;28;20499;-68
2023/01/22 05:49:10;;;;;;;6.70;4.97;;;3.10;99.90;;;;;;5057292;28;20797;-69
2023/01/22 05:51:36;;;;;;;6.00;5.37;;;3.00;99.90;;;;;;5058274;28;20486;-69
2023/01/22 05:54:04;;;;;;;5.90;5.30;;;3.00;99.90;;;;;;5059051;28;20558;-68
2023/01/22 05:56:31;;;;;;;5.80;5.10;;;3.10;99.90;;;;;;5058856;28;20646;-69
2023/01/22 05:58:58;;;;;;;6.00;5.40;;;3.00;99.90;;;;;;5059767;28;20451;-69
2023/01/22 06:01:25;;;;;;;5.60;4.63;;;3.00;99.90;;;;;;5058624;28;20502;-69
2023/01/22 06:03:53;;;;;;;5.87;4.97;;;3.00;99.90;;;;;;5058340;28;20542;-69
2023/01/22 06:06:20;;;;;;;7.20;5.70;;;3.00;99.90;;;;;;5059560;28;20920;-65
2023/01/22 06:08:50;;;;;;;6.20;5.60;;;3.00;99.90;;;;;;5062696;28;20858;-68
2023/01/22 06:11:17;;;;;;;6.30;5.53;;;3.00;99.90;;;;;;5059009;28;20520;-66
2023/01/22 06:13:44;;;;;;;7.00;5.73;;;3.00;99.90;;;;;;5055845;28;20505;-69
2023/01/22 06:16:11;;;;;;;6.97;6.27;;;2.90;99.90;;;;;;5059285;28;20523;-70
2023/01/22 06:18:38;;;;;;;6.43;5.83;;;2.90;99.90;;;;;;5058745;28;20987;-68
2023/01/22 06:21:07;;;;;;;7.00;5.63;;;2.90;99.90;;;;;;5055970;28;20915;-69
2023/01/22 06:23:35;;;;;;;7.37;5.90;;;2.90;99.90;;;;;;5056122;28;20923;-68
2023/01/22 06:26:03;;;;;;;7.47;6.00;;;2.90;99.90;;;;;;5056463;28;20911;-69
2023/01/22 06:28:30;;;;;;;6.50;5.70;;;2.90;99.90;;;;;;5056549;28;20541;-68
2023/01/22 06:31:01;;;;;;;8.37;6.30;;;2.90;99.90;;;;;;5056422;28;20565;-68
2023/01/22 06:33:28;;;;;;;7.03;6.33;;;2.90;99.90;;;;;;5055877;28;20443;-69
2023/01/22 06:35:55;;;;;;;6.87;6.17;;;3.00;99.90;;;;;;5056313;28;20546;-68
2023/01/22 06:38:24;;;;;;;7.30;6.17;;;3.00;99.90;;;;;;5056388;28;20455;-68
2023/01/22 06:40:52;;;;;;;8.43;6.60;;;3.00;99.90;;;;;;5055815;28;20483;-68
2023/01/22 06:43:18;;;;;;;9.33;5.80;;;3.00;99.90;;;;;;5055654;28;20570;-68
2023/01/22 06:45:45;;;;;;;7.37;5.57;;;3.00;99.90;;;;;;5055938;28;20859;-69
2023/01/22 06:48:12;;;;;;;6.80;5.97;;;3.00;99.90;;;;;;5055376;28;20601;-69
2023/01/22 06:50:39;;;;;;;7.27;5.97;;;3.00;99.90;;;;;;5055483;28;20475;-69
2023/01/22 06:53:06;;;;;;;7.47;6.67;;;3.10;99.90;;;;;;5055416;28;20541;-69
2023/01/22 06:55:35;;;;;;;6.30;5.70;;;3.10;99.90;;;;;;5055561;28;20849;-69
2023/01/22 06:58:01;;;;;;;7.63;6.13;;;3.00;99.90;;;;;;5055923;28;20459;-69
2023/01/22 07:00:29;;;;;;;7.43;6.67;;;3.00;99.90;;;;;;5054783;28;20533;-68
2023/01/22 07:02:55;;;;;;;8.73;6.00;;;3.00;99.90;;;;;;5055032;28;20491;-68
2023/01/22 07:05:23;;;;;;;7.80;7.00;;;3.00;99.90;;;;;;5055276;28;20485;-67
2023/01/22 07:07:53;;;;;;;9.47;7.30;;;3.10;99.90;;;;;;5054833;28;20525;-69
2023/01/22 07:10:20;;;;;;;7.27;6.13;;;3.00;99.90;;;;;;5054905;28;20479;-70
2023/01/22 07:12:48;;;;;;;7.37;6.63;;;3.00;99.90;;;;;;5054983;28;20550;-69
2023/01/22 07:15:15;;;;;;;8.30;6.57;;;3.00;99.90;;;;;;5055105;28;20466;-68
2023/01/22 07:17:42;;;;;;;9.07;7.13;;;3.00;99.90;;;;;;5055004;28;20800;-69
2023/01/22 07:20:10;;;;;;;8.00;6.90;;;3.10;99.90;;;;;;5054520;28;21011;-69
2023/01/22 07:22:37;;;;;;;7.10;6.13;;;3.10;99.90;;;;;;5054667;28;20469;-68
2023/01/22 07:25:04;;;;;;;8.40;7.00;;;3.10;99.90;;;;;;5055146;28;20455;-69
2023/01/22 07:27:33;;;;;;;7.37;6.67;;;3.10;99.90;;;;;;5054256;28;20481;-68
2023/01/22 07:30:02;;;;;;;7.67;6.43;;;3.10;99.90;;;;;;5054134;28;20481;-68
2023/01/22 07:32:29;;;;;;;9.30;6.90;;;3.10;99.90;;;;;;5054626;28;20455;-69
2023/01/22 07:34:56;;;;;;;10.33;7.00;;;3.10;99.90;;;;;;5054695;28;20545;-68
2023/01/22 07:37:23;;;;;;;8.03;6.50;;;3.10;99.90;;;;;;5054715;28;20495;-68
2023/01/22 07:39:50;;;;;;;8.17;6.83;;;3.10;99.90;;;;;;5054879;28;20461;-68
2023/01/22 07:42:16;;;;;;;8.07;6.50;;;3.10;99.90;;;;;;5054449;28;20495;-69
2023/01/22 07:44:43;;;;;;;7.43;6.13;;;3.10;99.90;;;;;;5055137;28;20550;-68
2023/01/22 07:47:11;;;;;;;7.73;6.10;;;3.10;99.90;;;;;;5055263;28;20459;-69
2023/01/22 07:49:38;;;;;;;7.73;6.60;;;3.10;99.90;;;;;;5063792;28;20484;-69
2023/01/22 07:52:05;;;;;;;9.70;7.07;;;3.10;99.90;;;;;;5074933;28;20550;-68
2023/01/22 07:54:35;;;;;;;7.80;6.83;;;3.10;99.90;;;;;;5074772;28;20469;-69
2023/01/22 07:57:02;;;;;;;7.00;6.03;;;3.20;99.90;;;;;;5074816;28;20462;-69
2023/01/22 07:59:29;;;;;;;13.00;7.50;;;3.20;99.90;;;;;;5074759;28;20459;-68
2023/01/22 08:01:56;;;;;;;8.90;7.23;;;3.30;99.90;;;;;;5074342;28;20877;-68
2023/01/22 08:04:24;;;;;;;8.60;6.90;;;3.30;99.90;;;;;;5074383;28;20519;-68
2023/01/22 08:06:52;;;;;;;8.60;6.90;;;3.30;99.90;;;;;;5074066;28;20938;-68
2023/01/22 08:09:23;;;;;;;7.47;6.07;;;3.30;99.90;;;;;;5074749;28;20454;-68
2023/01/22 08:11:51;;;;;;;7.90;7.10;;;3.30;99.90;;;;;;5077199;28;20512;-68
2023/01/22 08:14:18;;;;;;;7.13;5.90;;;3.30;99.90;;;;;;5078588;28;20459;-68
2023/01/22 08:16:45;;;;;;;7.60;6.80;;;3.30;99.90;;;;;;5078770;28;20446;-70
2023/01/22 08:19:12;;;;;;;7.30;6.53;;;3.30;99.90;;;;;;5078985;28;20902;-68
2023/01/22 08:21:40;;;;;;;8.90;6.57;;;3.30;99.90;;;;;;5078412;28;20494;-69
2023/01/22 08:24:09;;;;;;;6.37;5.53;;;3.30;99.90;;;;;;5078911;28;20864;-69
2023/01/22 08:26:38;;;;;;;8.63;7.10;;;3.40;99.90;;;;;;5078409;28;20779;-68
2023/01/22 08:29:05;;;;;;;8.23;6.87;;;3.40;99.90;;;;;;5067263;28;20458;-68
2023/01/22 08:31:32;;;;;;;8.10;6.27;;;3.40;99.90;;;;;;5057932;28;20475;-69
2023/01/22 08:33:59;;;;;;;7.30;6.60;;;3.40;99.90;;;;;;5074959;28;20549;-69
2023/01/22 08:36:26;;;;;;;8.67;6.30;;;3.30;99.90;;;;;;5077378;28;20541;-68
2023/01/22 08:38:54;;;;;;;7.27;6.23;;;3.40;99.90;;;;;;5078303;28;20647;-68
2023/01/22 08:41:22;;;;;;;8.00;7.00;;;3.40;99.90;;;;;;5078010;28;20460;-69
2023/01/22 08:43:48;;;;;;;7.60;6.80;;;3.40;99.90;;;;;;5077590;28;20496;-69
2023/01/22 08:46:15;;;;;;;8.33;6.90;;;3.40;99.90;;;;;;5077697;28;20497;-69
2023/01/22 08:48:43;;;;;;;6.87;6.10;;;3.40;99.90;;;;;;5077712;28;20541;-70
2023/01/22 08:51:10;;;;;;;9.77;7.90;;;3.50;99.90;;;;;;5078150;28;20497;-69
2023/01/22 08:53:37;;;;;;;7.13;5.47;;;3.50;99.90;;;;;;5062693;28;20461;-69
2023/01/22 08:56:06;;;;;;;9.80;7.73;;;3.50;99.90;;;;;;5057554;28;20462;-69
2023/01/22 08:58:33;;;;;;;8.47;6.83;;;3.50;99.90;;;;;;5057903;28;20840;-68
2023/01/22 09:00:59;;;;;;;9.47;7.40;;;3.50;99.90;;;;;;5057793;28;20546;-69
2023/01/22 09:03:26;;;;;;;9.13;6.73;;;3.50;99.90;;;;;;5057463;28;20494;-70
2023/01/22 09:05:53;;;;;;;7.43;6.17;;;3.50;99.90;;;;;;5057502;28;20532;-70
2023/01/22 09:08:20;;;;;;;8.03;7.03;;;3.60;99.90;;;;;;5057851;28;20903;-69
2023/01/22 09:10:47;;;;;;;8.80;7.53;;;3.60;99.90;;;;;;5057417;28;20478;-69
2023/01/22 09:13:15;;;;;;;9.23;6.73;;;3.60;99.90;;;;;;5057952;28;20470;-70
2023/01/22 09:15:42;;;;;;;8.83;7.60;;;3.60;99.90;;;;;;5057375;28;20459;-69
2023/01/22 09:18:09;;;;;;;8.70;7.30;;;3.60;99.90;;;;;;5057265;28;20455;-68
2023/01/22 09:20:36;;;;;;;13.07;7.50;;;3.60;99.90;;;;;;5057148;28;20494;-68
2023/01/22 09:23:03;;;;;;;10.90;7.17;;;3.60;99.90;;;;;;5056568;28;20547;-68
2023/01/22 09:25:30;;;;;;;7.53;6.73;;;3.60;99.90;;;;;;5056707;28;20463;-68
2023/01/22 09:27:58;;;;;;;11.40;8.10;;;3.60;99.90;;;;;;5058278;28;20936;-68
2023/01/22 09:30:28;;;;;;;10.00;8.00;;;3.60;99.90;;;;;;5059207;28;20483;-69
2023/01/22 09:32:55;;;;;;;10.53;7.37;;;3.60;99.90;;;;;;5056944;28;20459;-71
2023/01/22 09:35:22;;;;;;;9.83;8.03;;;3.60;99.90;;;;;;5056930;28;20455;-70
2023/01/22 09:37:49;;;;;;;11.30;7.37;;;3.60;99.90;;;;;;5057000;28;20550;-69
2023/01/22 09:40:24;;;;;;;9.00;7.80;;;3.60;99.90;;;;;;5057599;28;20728;-70
2023/01/22 09:42:54;;;;;;;9.10;7.30;;;3.60;99.90;;;;;;5056431;28;20555;-68
2023/01/22 09:45:26;;;;;;;10.03;7.47;;;3.60;99.90;;;;;;5056528;28;20528;-69
2023/01/22 09:47:57;;;;;;;10.50;7.93;;;3.60;99.90;;;;;;5056634;28;20458;-69
2023/01/22 09:50:26;;;;;;;10.27;7.80;;;3.70;99.90;;;;;;5057645;28;20470;-69
2023/01/22 09:52:56;;;;;;;9.97;8.17;;;3.70;99.90;;;;;;5056898;28;20463;-69
2023/01/22 09:55:28;;;;;;;11.73;8.03;;;3.70;99.90;;;;;;5056661;28;20950;-68
2023/01/22 09:57:57;;;;;;;9.93;7.60;;;3.70;99.90;;;;;;5057060;28;20526;-69
2023/01/22 10:00:31;;;;;;;9.53;8.03;;;3.70;99.90;;;;;;5056620;28;20718;-69
2023/01/22 10:03:02;;;;;;;10.27;8.13;;;3.70;99.90;;;;;;5056144;28;20438;-68
2023/01/22 10:05:32;;;;;;;9.30;7.90;;;3.70;99.90;;;;;;5056230;28;20458;-68
2023/01/22 10:08:05;;;;;;;10.47;8.10;;;3.70;99.90;;;;;;5056314;28;20436;-68
2023/01/22 10:10:33;;;;;;;9.20;7.50;;;3.70;99.90;;;;;;5056226;28;21003;-69
2023/01/22 10:13:11;;;;;;;11.67;8.43;;;3.70;99.90;;;;;;5056536;28;20542;-69
2023/01/22 10:15:39;;;;;;;10.23;7.57;;;3.80;99.90;;;;;;5055787;28;20443;-69
2023/01/22 10:18:20;;;;;;;11.10;8.87;;;3.70;99.90;;;;;;5055869;28;20951;-69
2023/01/22 10:20:48;;;;;;;11.17;7.90;;;3.70;99.90;;;;;;5056225;28;20530;-69
2023/01/22 10:23:18;;;;;;;9.83;8.13;;;3.70;99.90;;;;;;5056113;28;20562;-70
2023/01/22 10:25:45;;;;;;;11.57;8.47;;;3.60;99.90;;;;;;5056469;28;20837;-69
2023/01/22 10:28:14;;;;;;;10.70;8.47;;;3.60;99.90;;;;;;5057554;28;20478;-68
2023/01/22 10:30:47;;;;;;;12.77;9.50;;;3.60;99.90;;;;;;5057253;28;20506;-69
2023/01/22 10:33:19;;;;;;;11.57;9.07;;;3.60;99.90;;;;;;5056041;28;20444;-69
2023/01/22 10:35:48;;;;;;;11.20;8.87;;;3.60;99.90;;;;;;5054880;28;20439;-69
2023/01/22 10:38:26;;;;;;;11.60;8.60;;;3.70;99.90;;;;;;5055406;28;21033;-69
2023/01/22 10:40:56;;;;;;;12.27;8.90;;;3.80;99.90;;;;;;5055485;28;20841;-68
2023/01/22 10:43:30;;;;;;;9.67;8.67;;;3.80;99.90;;;;;;5055228;28;20478;-68
2023/01/22 10:46:04;;;;;;;11.90;10.00;;;3.90;99.90;;;;;;5056230;28;20464;-68
2023/01/22 10:48:31;;;;;;;12.70;9.73;;;3.90;99.90;;;;;;5055672;28;20839;-70
2023/01/22 10:51:02;;;;;;;11.47;9.77;;;4.00;99.90;;;;;;5055203;28;20813;-68
2023/01/22 10:53:33;;;;;;;15.00;9.90;;;4.10;99.90;;;;;;5055732;28;20531;-69
2023/01/22 10:56:02;;;;;;;12.40;8.83;;;4.20;99.90;;;;;;5055456;28;20561;-69
2023/01/22 10:58:33;;;;;;;14.30;9.10;;;4.20;99.90;;;;;;5056320;28;20522;-68
2023/01/22 11:01:05;;;;;;;19.47;8.63;;;4.10;99.90;;;;;;5055440;28;20443;-68
2023/01/22 11:03:35;;;;;;;12.03;9.37;;;4.10;99.90;;;;;;5055526;28;20546;-69
2023/01/22 11:06:06;;;;;;;12.70;9.07;;;4.00;99.90;;;;;;5055483;28;20530;-69
2023/01/22 11:08:43;;;;;;;16.77;10.93;;;4.00;99.90;;;;;;5055382;28;20482;-69
2023/01/22 11:11:13;;;;;;;11.30;8.37;;;4.00;99.90;;;;;;5055086;28;20474;-68
2023/01/22 11:13:48;;;;;;;9.83;8.20;;;4.00;99.90;;;;;;5058191;28;20470;-67
2023/01/22 11:16:18;;;;;;;10.47;8.70;;;4.00;99.90;;;;;;5056779;28;20530;-69
2023/01/22 11:18:51;;;;;;;9.90;8.00;;;4.00;99.90;;;;;;5055079;28;20546;-68
2023/01/22 11:21:22;;;;;;;12.93;10.23;;;4.00;99.90;;;;;;5054693;28;20439;-68
2023/01/22 11:23:55;;;;;;;14.90;10.67;;;4.00;99.90;;;;;;5055244;28;20529;-70
2023/01/22 11:26:34;;;;;;;12.80;9.43;;;4.10;99.90;;;;;;5054878;28;20443;-68
2023/01/22 11:29:14;;;;;;;16.03;12.03;;;4.10;99.90;;;;;;5055219;28;20534;-69
2023/01/22 11:31:54;;;;;;;17.27;12.60;;;4.10;99.90;;;;;;5054565;28;20776;-69
2023/01/22 11:34:40;;;;;;;14.20;11.50;;;4.10;99.90;;;;;;5054622;28;20547;-69
2023/01/22 11:37:12;;;;;;;13.37;10.03;;;4.20;99.90;;;;;;5054817;28;20490;-69
2023/01/22 11:39:50;;;;;;;13.53;10.07;;;4.20;99.90;;;;;;5054521;28;20590;-70
2023/01/22 11:42:29;;;;;;;12.80;9.00;;;4.20;99.90;;;;;;5055579;28;20479;-70
2023/01/22 11:45:12;;;;;;;10.47;8.80;;;4.20;99.90;;;;;;5056675;28;20443;-69
2023/01/22 11:48:06;;;;;;;13.10;9.70;;;4.10;99.90;;;;;;5055723;28;20440;-70
2023/01/22 11:50:40;;;;;;;11.67;8.73;;;4.10;99.90;;;;;;5052608;28;20462;-69
2023/01/22 11:53:35;;;;;;;10.87;8.90;;;4.00;99.90;;;;;;5054738;28;20525;-69
2023/01/22 11:56:16;;;;;;;10.40;8.80;;;4.00;99.90;;;;;;5054429;28;20448;-70
2023/01/22 11:58:50;;;;;;;13.00;9.57;;;4.00;99.90;;;;;;5054132;28;20444;-69
2023/01/22 12:01:24;;;;;;;11.50;9.20;;;3.90;99.90;;;;;;5054042;28;20434;-68
2023/01/22 12:04:19;;;;;;;12.43;9.07;;;3.90;99.90;;;;;;5054273;28;20868;-69
2023/01/22 12:07:17;;;;;;;10.93;8.73;;;4.00;99.90;;;;;;5054284;28;20539;-68
2023/01/22 12:09:54;;;;;;;10.93;8.17;;;4.00;99.90;;;;;;5051066;28;20490;-69
2023/01/22 12:12:32;;;;;;;10.63;8.20;;;4.00;99.90;;;;;;5074506;28;20525;-68
2023/01/22 12:15:13;;;;;;;9.83;8.63;;;4.00;99.90;;;;;;5074366;28;20438;-68
2023/01/22 12:17:51;;;;;;;11.70;8.90;;;4.00;99.90;;;;;;5074151;28;20541;-70
2023/01/22 12:20:43;;;;;;;14.17;11.10;;;4.00;99.90;;;;;;5073041;28;20458;-69
2023/01/22 12:23:13;;;;;;;12.10;8.43;;;4.00;99.90;;;;;;5074456;28;20446;-69
2023/01/22 12:25:48;;;;;;;12.43;9.73;;;4.00;99.90;;;;;;5074659;28;20832;-69
2023/01/22 12:28:18;;;;;;;11.63;9.13;;;3.90;99.90;;;;;;5074922;28;20528;-69
2023/01/22 12:30:56;;;;;;;13.50;9.53;;;3.80;99.90;;;;;;5074739;28;20465;-69
2023/01/22 12:33:27;;;;;;;14.13;8.90;;;3.90;99.90;;;;;;5074575;28;20474;-70
2023/01/22 12:35:58;;;;;;;12.90;10.10;;;3.80;99.90;;;;;;5074559;28;20438;-69
2023/01/22 12:38:49;;;;;;;12.10;9.67;;;3.80;99.90;;;;;;5076644;28;20529;-69
2023/01/22 12:41:27;;;;;;;11.30;9.27;;;3.80;99.90;;;;;;5073837;28;20497;-70
2023/01/22 12:43:56;;;;;;;12.10;8.90;;;3.80;99.90;;;;;;5075049;28;20503;-70
2023/01/22 12:46:30;;;;;;;15.50;10.20;;;3.80;99.90;;;;;;5075909;28;20446;-68
2023/01/22 12:49:04;;;;;;;15.90;9.70;;;3.70;99.90;;;;;;5074476;28;20448;-69
2023/01/22 12:51:41;;;;;;;16.73;10.47;;;3.80;99.90;;;;;;5074452;28;20467;-66
2023/01/22 12:54:10;;;;;;;14.57;10.47;;;3.70;99.90;;;;;;5074246;28;20448;-66
2023/01/22 12:56:37;;;;;;;15.70;11.00;;;3.70;99.90;;;;;;5074684;28;20458;-65
2023/01/22 12:59:04;;;;;;;12.27;10.30;;;3.60;99.90;;;;;;5077068;28;20454;-68
2023/01/22 13:01:35;;;;;;;22.10;16.13;;;3.50;99.90;;;;;;5077460;28;20450;-68
2023/01/22 13:04:05;;;;;;;13.93;10.03;;;3.60;99.90;;;;;;5076953;28;20615;-67
2023/01/22 13:06:34;;;;;;;16.13;10.80;;;3.60;99.90;;;;;;5077605;28;20819;-67
2023/01/22 13:09:04;;;;;;;16.47;11.10;;;3.60;99.90;;;;;;5078478;28;20572;-67
2023/01/22 13:11:34;;;;;;;20.60;12.07;;;3.60;99.90;;;;;;5077721;28;20807;-67